Map

Track Data

SID SEASON NUMBER BASIN SUBBASIN NAME ISO_TIME NATURE LAT LON WMO_WIND WMO_PRES WMO_AGENCY TRACK_TYPE DIST2LAND LANDFALL IFLAG USA_AGENCY USA_ATCF_ID USA_LAT USA_LON USA_RECORD USA_STATUS USA_WIND USA_PRES USA_SSHS USA_R34_NE USA_R34_SE USA_R34_SW USA_R34_NW USA_R50_NE USA_R50_SE USA_R50_SW USA_R50_NW USA_R64_NE USA_R64_SE USA_R64_SW USA_R64_NW USA_POCI USA_ROCI USA_RMW USA_EYE TOKYO_LAT TOKYO_LON TOKYO_GRADE TOKYO_WIND TOKYO_PRES TOKYO_R50_DIR TOKYO_R50_LONG TOKYO_R50_SHORT TOKYO_R30_DIR TOKYO_R30_LONG TOKYO_R30_SHORT TOKYO_LAND CMA_LAT CMA_LON CMA_CAT CMA_WIND CMA_PRES HKO_LAT HKO_LON HKO_CAT HKO_WIND HKO_PRES NEWDELHI_LAT NEWDELHI_LON NEWDELHI_GRADE NEWDELHI_WIND NEWDELHI_PRES NEWDELHI_CI NEWDELHI_DP NEWDELHI_POCI REUNION_LAT REUNION_LON REUNION_TYPE REUNION_WIND REUNION_PRES REUNION_TNUM REUNION_CI REUNION_RMW REUNION_R34_NE REUNION_R34_SE REUNION_R34_SW REUNION_R34_NW REUNION_R50_NE REUNION_R50_SE REUNION_R50_SW REUNION_R50_NW REUNION_R64_NE REUNION_R64_SE REUNION_R64_SW REUNION_R64_NW BOM_LAT BOM_LON BOM_TYPE BOM_WIND BOM_PRES BOM_TNUM BOM_CI BOM_RMW BOM_R34_NE BOM_R34_SE BOM_R34_SW BOM_R34_NW BOM_R50_NE BOM_R50_SE BOM_R50_SW BOM_R50_NW BOM_R64_NE BOM_R64_SE BOM_R64_SW BOM_R64_NW BOM_ROCI BOM_POCI BOM_EYE BOM_POS_METHOD BOM_PRES_METHOD NADI_LAT NADI_LON NADI_CAT NADI_WIND NADI_PRES WELLINGTON_LAT WELLINGTON_LON WELLINGTON_WIND WELLINGTON_PRES DS824_LAT DS824_LON DS824_STAGE DS824_WIND DS824_PRES TD9636_LAT TD9636_LON TD9636_STAGE TD9636_WIND TD9636_PRES TD9635_LAT TD9635_LON TD9635_WIND TD9635_PRES TD9635_ROCI NEUMANN_LAT NEUMANN_LON NEUMANN_CLASS NEUMANN_WIND NEUMANN_PRES MLC_LAT MLC_LON MLC_CLASS MLC_WIND MLC_PRES USA_GUST BOM_GUST BOM_GUST_PER REUNION_GUST REUNION_GUST_PER USA_SEAHGT USA_SEARAD_NE USA_SEARAD_SE USA_SEARAD_SW USA_SEARAD_NW STORM_SPEED STORM_DIR
1976055S06156 1976 19 SP EA COLIN 1976-02-24 00:00:00 TS -6.00000 156.000 main 47 47 O________OO___ jtwc_sh SH171976 -6.00000 156.000 -1 -6.00000 156.000 TC -6.00000 156.000 4 11 89
1976055S06156 1976 19 SP EA COLIN 1976-02-24 03:00:00 TS -5.99351 156.562 main 78 78 P________PP___ SH171976 -5.97516 156.583 -1 -5.97516 156.583 TC -6.03021 156.522 4 11 91
1976055S06156 1976 19 SP EA COLIN 1976-02-24 06:00:00 TS -6.02603 157.072 main 95 90 O________OP___ jtwc_sh SH171976 -6.00000 157.100 -1 -6.00000 157.100 TC -6.07809 157.015 4 9 98
1976055S06156 1976 19 SP EA COLIN 1976-02-24 09:00:00 TS -6.12893 157.485 main 105 95 P________PP___ SH171976 -6.11244 157.502 -1 -6.11244 157.502 TC -6.16190 157.451 4 8 111
1976055S06156 1976 19 SP EA COLIN 1976-02-24 12:00:00 TS -6.30000 157.800 main 111 110 O________OO___ jtwc_sh SH171976 -6.30000 157.800 -1 -6.30000 157.800 TC -6.30000 157.800 4 7 125
1976055S06156 1976 19 SP EA COLIN 1976-02-24 15:00:00 TS -6.52002 158.044 main 110 94 P________PP___ SH171976 -6.52748 158.045 -1 -6.52748 158.045 TC -6.50510 158.043 4 6 141
1976055S06156 1976 19 SP EA COLIN 1976-02-24 18:00:00 TS -6.78908 158.197 main 94 60 O________OP___ jtwc_sh SH171976 -6.80000 158.200 -1 -6.80000 158.200 TC -6.76725 158.192 4 6 157
1976055S06156 1976 19 SP EA COLIN 1976-02-24 21:00:00 TS -7.08026 158.277 main 60 31 P________PP___ SH171976 -7.08499 158.280 -1 -7.08499 158.280 TC -7.07080 158.271 4 6 171
1976055S06156 1976 19 SP EA COLIN 1976-02-25 00:00:00 TS -7.40000 158.300 main 31 22 O________OO___ jtwc_sh SH171976 -7.40000 158.300 -1 -7.40000 158.300 TC -7.40000 158.300 4 7 177
1976055S06156 1976 19 SP EA COLIN 1976-02-25 03:00:00 TS -7.73645 158.321 main 24 24 P________PP___ SH171976 -7.74250 158.315 -1 -7.74250 158.315 TC -7.72435 158.334 4 7 0
1976055S06156 1976 19 SP EA COLIN 1976-02-25 06:00:00 TS -8.08999 158.308 main 47 45 O________OP___ jtwc_sh SH171976 -8.10000 158.300 -1 -8.10000 158.300 TC -8.06997 158.325 4 7 185
1976055S06156 1976 19 SP EA COLIN 1976-02-25 09:00:00 TS -8.43853 158.269 main 45 33 P________PP___ SH171976 -8.44250 158.265 -1 -8.44250 158.265 TC -8.43060 158.278 4 7 188
1976055S06156 1976 19 SP EA COLIN 1976-02-25 12:00:00 TS -8.80000 158.200 main 39 39 O________OO___ jtwc_sh SH171976 -8.80000 158.200 -1 -8.80000 158.200 TC -8.80000 158.200 4 8 191
1976055S06156 1976 19 SP EA COLIN 1976-02-25 15:00:00 TS -9.19874 158.115 main 70 70 P________PP___ SH171976 -9.20000 158.115 -1 -9.20000 158.115 TC -9.19621 158.116 4 10 206
1976055S06156 1976 19 SP EA COLIN 1976-02-25 17:00:00 TS -9.53163 157.847 25 1002 bom main 100 112 P_____O__PP___ SH171976 -9.46975 158.042 -1 -10.3000 155.500 20 25 1002 2.00000 -9.46975 158.042 TC -9.46330 158.043 4 45 45 18 230
1976055S06156 1976 19 SP EA COLIN 1976-02-25 18:00:00 TS -9.76990 157.423 main 141 141 O_____P__OP_O_ jtwc_sh SH171976 -9.60000 158.000 -1 -10.2693 155.677 20 25 1001 -9.60000 158.000 TC -9.59495 158.003 4 -10.3000 155.700 TC 25 1002 12 227
1976055S06156 1976 19 SP EA COLIN 1976-02-25 21:00:00 TS -10.0890 157.236 main 180 180 P_____P__PP_P_ SH171976 -9.97249 157.865 -1 -10.2582 156.162 20 28 999 -9.97249 157.865 TC -9.97121 157.863 4 -10.2403 156.213 TC 30 1000 7 208
1976055S06156 1976 19 SP EA COLIN 1976-02-25 23:00:00 TS -10.2915 157.142 30 998 bom main 205 205 P_____O__PP_P_ SH171976 -10.1974 157.758 -1 -10.4000 156.400 20 30 998 2.50000 -10.1974 157.758 TC -10.1972 157.757 4 -10.3088 156.493 TC 33 998 45 45 7 203
1976055S06156 1976 19 SP EA COLIN 1976-02-26 00:00:00 TS -10.4060 157.097 main 215 215 O_____P__OO_O_ jtwc_sh SH171976 -10.3000 157.700 -1 -10.5362 156.481 20 31 997 -10.3000 157.700 TC -10.3000 157.700 4 -10.4000 156.600 TC 35 998 8 189
1976055S06156 1976 19 SP EA COLIN 1976-02-26 03:00:00 TS -10.7859 157.063 main 258 258 P_____P__PP_P_ SH171976 -10.5800 157.508 -1 -11.0809 156.565 20 36 995 -10.5800 157.508 TC -10.5746 157.538 4 -10.8923 156.762 TC 37 996 8 191
1976055S06156 1976 19 SP EA COLIN 1976-02-26 05:00:00 TS -11.0231 156.975 40 994 bom main 282 282 P_____O__PP_P_ SH171976 -10.7333 157.369 -1 -11.4000 156.500 30 40 994 3.00000 -10.7333 157.369 TC -10.7287 157.417 4 -11.2553 156.744 TC 39 994 55 55 7 203
1976055S06156 1976 19 SP EA COLIN 1976-02-26 06:00:00 TS -11.1145 156.915 main 296 296 O_____P__OP_O_ jtwc_sh SH171976 -10.8000 157.300 -1 -11.4895 156.437 30 40 993 -10.8000 157.300 TC -10.7974 157.352 4 -11.4000 156.700 TC 40 994 6 228
1976055S06156 1976 19 SP EA COLIN 1976-02-26 09:00:00 TS -11.2854 156.681 main 325 325 P_____P__PP_P_ SH171976 -10.9800 157.115 -1 -11.6085 156.130 30 40 993 -10.9800 157.115 TC -10.9714 157.141 4 -11.5901 156.445 TC 40 993 6 242
1976055S06156 1976 19 SP EA COLIN 1976-02-26 11:00:00 TS -11.3361 156.494 40 993 bom main 334 334 P_____O__PP_P_ SH171976 -11.0666 156.978 -1 -11.6000 155.900 30 40 993 3.00000 -11.0666 156.978 TC -11.0620 156.984 4 -11.6105 156.213 TC 40 993 55 55 6 257
1976055S06156 1976 19 SP EA COLIN 1976-02-26 12:00:00 TS -11.3504 156.401 main 349 349 O_____P__OO_O_ jtwc_sh SH171976 -11.1000 156.900 -1 -11.6026 155.808 30 40 993 -11.1000 156.900 TC -11.1000 156.900 4 -11.6000 156.100 TC 40 993 5 267
1976055S06156 1976 19 SP EA COLIN 1976-02-26 15:00:00 TS -11.3522 156.129 main 364 355 P_____P__PP_P_ SH171976 -11.1650 156.615 -1 -11.5279 155.553 30 40 993 -11.1650 156.615 TC -11.1851 156.620 4 -11.5675 155.835 TC 40 993 5 276
1976055S06156 1976 19 SP EA COLIN 1976-02-26 17:00:00 TS -11.3070 155.946 40 994 bom main 365 365 P_____O__PP_P_ SH171976 -11.1886 156.405 -1 -11.4000 155.400 30 40 994 3.00000 -11.1886 156.405 TC -11.2180 156.418 4 -11.4724 155.675 TC 40 993 55 55 6 287
1976055S06156 1976 19 SP EA COLIN 1976-02-26 18:00:00 TS -11.2693 155.857 main 365 354 O_____P__OP_O_ jtwc_sh SH171976 -11.2000 156.300 -1 -11.2856 155.330 30 40 994 -11.2000 156.300 TC -11.2301 156.315 4 -11.4000 155.600 TC 40 994 6 301
1976055S06156 1976 19 SP EA COLIN 1976-02-26 21:00:00 TS -11.1073 155.602 main 359 355 P_____P__PP_P_ SH171976 -11.2425 155.992 -1 -10.8814 155.136 30 40 994 -11.2425 155.992 TC -11.2601 156.002 4 -11.0125 155.400 TC 40 994 6 301
1976055S06156 1976 19 SP EA COLIN 1976-02-26 23:00:00 TS -11.0258 155.437 40 994 bom main 361 361 P_____O__PP_P_ SH171976 -11.2776 155.794 -1 -10.7000 155.000 30 40 994 3.00000 -11.2776 155.794 TC -11.2840 155.798 4 -10.7727 155.270 TC 40 994 55 55 5 291
1976055S06156 1976 19 SP EA COLIN 1976-02-27 00:00:00 TS -11.0129 155.352 main 361 361 O_____P__OO_O_ jtwc_sh SH171976 -11.3000 155.700 -1 -10.6774 154.911 30 40 993 -11.3000 155.700 TC -11.3000 155.700 4 -10.7000 155.200 TC 40 994 5 259
1976055S06156 1976 19 SP EA COLIN 1976-02-27 03:00:00 TS -11.0936 155.091 main 389 389 P_____P__PP_P_ SH171976 -11.3925 155.443 -1 -10.7990 154.639 30 40 993 -11.3925 155.443 TC -11.3653 155.419 4 -10.7451 154.928 TC 40 993 6 246
1976055S06156 1976 19 SP EA COLIN 1976-02-27 05:00:00 TS -11.2123 154.899 40 993 bom main 411 411 P_____O__PP_P_ SH171976 -11.4640 155.281 -1 -11.0000 154.500 30 40 993 3.00000 -11.4640 155.281 TC -11.4176 155.241 4 -10.9010 154.763 TC 40 993 55 55 7 236
1976055S06156 1976 19 SP EA COLIN 1976-02-27 06:00:00 TS -11.2825 154.802 main 426 426 O_____P__OP_O_ jtwc_sh SH171976 -11.5000 155.200 -1 -11.1266 154.453 30 40 993 -11.5000 155.200 TC -11.4475 155.155 4 -11.0000 154.700 TC 40 993 6 226
1976055S06156 1976 19 SP EA COLIN 1976-02-27 08:00:00 TS -11.4251 154.670 40 993 bom main 442 435 P_____O__PP_P_ SH171976 -11.5612 155.028 -1 -11.4000 154.400 30 40 993 3.00000 -11.5612 155.028 TC -11.5163 154.991 4 -11.2289 154.624 TC 41 991 55 55 6 223
1976055S06156 1976 19 SP EA COLIN 1976-02-27 09:00:00 TS -11.4944 154.604 main 437 429 P_____P__PP_P_ SH171976 -11.5925 154.942 -1 -11.5155 154.390 30 41 992 -11.5925 154.942 TC -11.5559 154.913 4 -11.3575 154.605 TC 42 991 5 214
1976055S06156 1976 19 SP EA COLIN 1976-02-27 11:00:00 TS -11.6245 154.533 45 990 bom main 429 429 P_____O__PP_P_ SH171976 -11.6610 154.778 -1 -11.7000 154.400 30 45 990 3.00000 -11.6610 154.778 TC -11.6474 154.767 4 -11.6014 154.595 TC 44 990 64 64 4 207
1976055S06156 1976 19 SP EA COLIN 1976-02-27 12:00:00 TS -11.6803 154.502 main 432 422 O_____P_OOO_O_ jtwc_sh SH171976 -11.7000 154.700 -1 -11.7624 154.411 30 45 989 -11.5000 154.000 40 990 -11.7000 154.700 TC -11.7000 154.700 4 -11.7000 154.600 TC 45 990 3 220
1976055S06156 1976 19 SP EA COLIN 1976-02-27 15:00:00 TS -11.7726 154.405 main 425 425 P_____P_PPP_P_ SH171976 -11.8200 154.477 -1 -11.8556 154.467 30 48 988 -11.2266 153.812 43 987 -11.8200 154.477 TC -11.8646 154.461 4 -11.8300 154.642 TC 47 988 3 225
1976055S06156 1976 19 SP EA COLIN 1976-02-27 17:00:00 TS -11.8277 154.351 50 987 bom main 425 415 P_____O_PPP_P_ SH171976 -11.9302 154.353 -1 -11.9000 154.500 30 50 987 3.50000 -11.0737 153.700 46 985 -11.9302 154.353 TC -11.9954 154.320 4 -11.8741 154.684 TC 49 987 69 69 2 220
1976055S06156 1976 19 SP EA COLIN 1976-02-27 18:00:00 TS -11.8631 154.325 main 418 412 O_____P_POP_O_ jtwc_sh SH171976 -12.0000 154.300 -1 -11.9364 154.503 30 50 986 -11.0126 153.650 47 985 -12.0000 154.300 TC -12.0674 154.258 4 -11.9000 154.700 TC 50 987 3 212
1976055S06156 1976 19 SP EA COLIN 1976-02-27 21:00:00 TS -12.0080 154.240 main 412 412 P_____P_PPP_P_ SH171976 -12.2700 154.140 -1 -12.0709 154.498 30 53 984 -10.9172 153.537 51 982 -12.2700 154.140 TC -12.3115 154.127 4 -12.0200 154.700 TC 52 985 4 201
1976055S06156 1976 19 SP EA COLIN 1976-02-27 23:00:00 TS -12.1435 154.213 55 983 bom main 417 421 P_____O_PPP_P_ SH171976 -12.4864 154.094 -1 -12.2000 154.500 30 55 983 4.00000 -10.9489 153.503 53 980 -12.4864 154.094 TC -12.4987 154.095 4 -12.1302 154.697 TC 54 983 75 75 4 0
1976055S06156 1976 19 SP EA COLIN 1976-02-28 00:00:00 TS -12.2261 154.216 main 421 421 O_____P_OOO_O_ jtwc_sh SH171976 -12.6000 154.100 -1 -12.2829 154.514 30 55 982 -11.0000 153.500 55 980 -12.6000 154.100 TC -12.6000 154.100 4 -12.2000 154.700 TC 55 983 6 167
1976055S06156 1976 19 SP EA COLIN 1976-02-28 03:00:00 TS -12.5344 154.307 main 446 446 P_____P_PPP_P_ SH171976 -12.9350 154.247 -1 -12.5837 154.569 30 58 980 -11.3001 153.553 57 977 -12.9350 154.247 TC -12.9321 154.233 4 -12.4775 154.750 TC 60 980 7 162
1976055S06156 1976 19 SP EA COLIN 1976-02-28 05:00:00 TS -12.7733 154.401 60 979 bom main 472 472 P_____O_PPP_P_ SH171976 -13.1750 154.412 -1 -12.8000 154.600 30 60 979 4.00000 -11.6012 153.628 59 975 -13.1750 154.412 TC -13.1775 154.381 4 -12.6921 154.786 TC 63 978 84 84 8 159
1976055S06156 1976 19 SP EA COLIN 1976-02-28 06:00:00 TS -12.8965 154.449 main 478 478 O_____P_POP_O_ jtwc_sh SH171976 -13.3000 154.500 -1 -12.8948 154.603 30 60 978 -11.7752 153.675 60 975 -13.3000 154.500 TC -13.3053 154.467 4 -12.8000 154.800 TC 65 978 8 161
1976055S06156 1976 19 SP EA COLIN 1976-02-28 09:00:00 TS -13.2729 154.583 main 521 521 P_____P_PPP_P_ SH171976 -13.7000 154.757 -1 -13.1842 154.598 30 63 975 -12.3627 153.834 62 972 -13.7000 154.757 TC -13.7009 154.742 4 -13.0850 154.800 TC 67 976 8 161
1976055S06156 1976 19 SP EA COLIN 1976-02-28 11:00:00 TS -13.5378 154.672 65 974 bom main 543 549 P_____O_PPP_P_ SH171976 -13.9698 154.925 -1 -13.4000 154.600 40 65 974 4.50000 -12.7859 153.946 64 970 -13.9698 154.925 TC -13.9677 154.920 4 -13.2886 154.797 TC 69 974 89 89 8 162
1976055S06156 1976 19 SP EA COLIN 1976-02-28 12:00:00 TS -13.6738 154.715 main 556 556 O_____P_OOO_O_ jtwc_sh SH171976 -14.1000 155.000 -1 -13.5167 154.606 40 66 973 -13.0000 154.000 65 970 -14.1000 155.000 TC -14.1000 155.000 4 -13.4000 154.800 TC 70 974 8 164
1976055S06156 1976 19 SP EA COLIN 1976-02-28 15:00:00 TS -14.0760 154.827 main 593 593 P_____P_PPP_P_ SH171976 -14.4500 155.173 -1 -13.9067 154.646 40 71 970 -13.5891 154.125 68 966 -14.4500 155.173 TC -14.4465 155.170 4 -13.7700 154.828 TC 72 971 9 165
1976055S06156 1976 19 SP EA COLIN 1976-02-28 17:00:00 TS -14.3611 154.903 75 968 bom main 623 623 P_____O_PPP_P_ SH171976 -14.6802 155.261 -1 -14.2000 154.700 40 75 968 4.50000 -14.0019 154.209 71 963 -14.6802 155.261 TC -14.6786 155.267 4 -14.0500 154.869 TC 74 968 104 104 9 166
1976055S06156 1976 19 SP EA COLIN 1976-02-28 18:00:00 TS -14.5082 154.942 main 631 631 O_____P_POP_O_ jtwc_sh SH171976 -14.8000 155.300 -1 -14.3474 154.736 40 75 967 -14.2125 154.250 72 962 -14.8000 155.300 TC -14.7975 155.310 4 -14.2000 154.900 TC 75 968 9 165
1976055S06156 1976 19 SP EA COLIN 1976-02-28 21:00:00 TS -14.9620 155.067 main 685 685 P_____P_PPP_P_ SH171976 -15.1700 155.415 -1 -14.8321 154.881 40 78 965 -14.8547 154.375 76 958 -15.1700 155.415 TC -15.1747 155.420 4 -14.6625 155.028 TC 77 966 10 166
1976055S06156 1976 19 SP EA COLIN 1976-02-28 23:00:00 TS -15.2936 155.152 80 964 bom main 717 717 P_____O_PPP_P_ SH171976 -15.4469 155.475 -1 -15.2000 155.000 40 80 964 5.00000 -15.2855 154.458 78 956 -15.4469 155.475 TC -15.4515 155.477 4 -15.0110 155.139 TC 79 964 110 110 11 166
1976055S06156 1976 19 SP EA COLIN 1976-02-29 00:00:00 TS -15.4714 155.195 main 733 733 O_____P_OOO_O_ jtwc_sh SH171976 -15.6000 155.500 -1 -15.3995 155.064 40 80 963 -15.5000 154.500 80 955 -15.6000 155.500 TC -15.6000 155.500 4 -15.2000 155.200 TC 80 964 12 168
1976055S06156 1976 19 SP EA COLIN 1976-02-29 03:00:00 TS -16.0550 155.327 main 791 791 P_____P_PPP_P_ SH171976 -16.1275 155.565 -1 -16.0504 155.269 40 83 962 -16.1250 154.633 78 956 -16.1275 155.565 TC -16.0997 155.558 4 -15.8275 155.400 TC 82 962 12 168
1976055S06156 1976 19 SP EA COLIN 1976-02-29 05:00:00 TS -16.4673 155.408 85 961 bom main 815 809 P_____O_PPP_P_ SH171976 -16.5088 155.592 -1 -16.5000 155.400 40 85 961 5.00000 -16.5417 154.722 77 957 -16.5088 155.592 TC -16.4609 155.580 4 -16.2755 155.536 TC 84 961 119 119 13 170
1976055S06156 1976 19 SP EA COLIN 1976-02-29 06:00:00 TS -16.6738 155.444 main 803 759 O_____P_POP_O_ jtwc_sh SH171976 -16.7000 155.600 -1 -16.7193 155.456 40 85 960 -16.7500 154.765 77 957 -16.7000 155.600 TC -16.6475 155.588 4 -16.5000 155.600 TC 85 961 12 172
1976055S06156 1976 19 SP EA COLIN 1976-02-29 09:00:00 TS -17.2837 155.533 main 759 733 P_____P_PPP_P_ SH171976 -17.2500 155.608 -1 -17.3745 155.606 40 85 959 -17.3750 154.889 76 958 -17.2500 155.608 TC -17.2216 155.599 4 -17.1575 155.758 TC 87 959 12 173
1976055S06156 1976 19 SP EA COLIN 1976-02-29 11:00:00 TS -17.6873 155.583 85 958 bom main 733 717 P_____O_PPP_P_ SH171976 -17.6167 155.603 -1 -17.8000 155.700 40 85 958 5.00000 -17.7917 154.965 75 959 -17.6167 155.603 TC -17.6081 155.600 4 -17.5890 155.853 TC 89 958 119 119 12 174
1976055S06156 1976 19 SP EA COLIN 1976-02-29 12:00:00 TS -17.8865 155.608 main 717 686 O_____P_OOO_O_ jtwc_sh SH171976 -17.8000 155.600 -1 -18.0057 155.753 40 85 957 -18.0000 155.000 75 960 -17.8000 155.600 TC -17.8000 155.600 4 -17.8000 155.900 TC 90 958 12 173
1976055S06156 1976 19 SP EA COLIN 1976-02-29 15:00:00 TS -18.4769 155.684 main 678 649 P_____P_PPP_P_ SH171976 -18.3500 155.600 -1 -18.6054 155.908 40 88 956 -18.6493 155.098 75 960 -18.3500 155.600 TC -18.3703 155.615 4 -18.4075 156.058 TC 90 957 12 173
1976055S06156 1976 19 SP EA COLIN 1976-02-29 17:00:00 TS -18.8669 155.729 90 956 bom main 649 642 P_____O_PPP_P_ SH171976 -18.7167 155.600 -1 -19.0000 156.000 40 90 956 5.50000 -19.0812 155.154 75 960 -18.7167 155.600 TC -18.7497 155.621 4 -18.8026 156.156 TC 90 956 124 124 12 175
1976055S06156 1976 19 SP EA COLIN 1976-02-29 18:00:00 TS -19.0614 155.749 main 635 611 O_____P_POP_O_ jtwc_sh SH171976 -18.9000 155.600 -1 -19.1974 156.039 40 90 955 -19.2949 155.180 75 960 -18.9000 155.600 TC -18.9374 155.622 4 -19.0000 156.200 TC 90 956 12 174
1976055S06156 1976 19 SP EA COLIN 1976-02-29 21:00:00 TS -19.6511 155.808 main 605 588 P_____P_PPP_P_ SH171976 -19.4650 155.607 -1 -19.7921 156.139 40 90 954 -19.9181 155.248 75 960 -19.4650 155.607 TC -19.4859 155.618 4 -19.5925 156.308 TC 92 955 12 175
1976055S06156 1976 19 SP EA COLIN 1976-02-29 23:00:00 TS -20.0382 155.840 90 954 bom main 588 579 P_____O_PPP_P_ SH171976 -19.8281 155.606 -1 -20.2000 156.200 40 90 954 5.50000 -20.3118 155.284 75 960 -19.8281 155.606 TC -19.8334 155.608 4 -19.9943 156.369 TC 94 954 124 124 12 176
1976055S06156 1976 19 SP EA COLIN 1976-03-01 00:00:00 TS -20.2295 155.856 main 579 520 O_____P_OOO_O_ jtwc_sh SH171976 -20.0000 155.600 -1 -20.4188 156.246 40 90 954 -20.5000 155.300 75 960 -20.0000 155.600 TC -20.0000 155.600 4 -20.2000 156.400 TC 95 954 11 176
1976055S06156 1976 19 SP EA COLIN 1976-03-01 03:00:00 TS -20.7867 155.893 main 520 491 P_____P_PPP_P_ SH171976 -20.4725 155.558 -1 -21.0849 156.372 40 90 954 -21.0383 155.344 73 961 -20.4725 155.558 TC -20.4568 155.572 4 -20.8650 156.537 TC 95 954 11 178
1976055S06156 1976 19 SP EA COLIN 1976-03-01 05:00:00 TS -21.1352 155.894 90 954 bom main 491 473 P_____O_PPP_P_ SH171976 -20.7610 155.519 -1 -21.5000 156.400 40 90 954 5.50000 -21.3724 155.365 72 962 -20.7610 155.519 TC -20.7415 155.546 4 -21.2978 156.595 TC 95 954 124 124 10 182
1976055S06156 1976 19 SP EA COLIN 1976-03-01 06:00:00 TS -21.2993 155.883 main 473 430 O_____P_POP_O_ jtwc_sh SH171976 -20.9000 155.500 -1 -21.6831 156.381 40 90 954 -21.5324 155.373 72 962 -20.9000 155.500 TC -20.8799 155.530 4 -21.5000 156.600 TC 95 954 10 187
1976055S06156 1976 19 SP EA COLIN 1976-03-01 09:00:00 TS -21.7612 155.811 main 421 388 P_____P_PPP_P_ SH171976 -21.3000 155.457 -1 -22.1808 156.234 40 90 954 -21.9852 155.390 71 963 -21.3000 155.457 TC -21.2881 155.472 4 -22.0375 156.495 TC 95 954 9 190
1976055S06156 1976 19 SP EA COLIN 1976-03-01 11:00:00 TS -22.0517 155.742 90 954 bom main 388 379 P_____O_PPP_P_ SH171976 -21.5636 155.422 -1 -22.5000 156.100 40 90 954 5.50000 -22.2658 155.398 70 964 -21.5636 155.422 TC -21.5611 155.426 4 -22.3526 156.369 TC 95 954 124 124 9 192
1976055S06156 1976 19 SP EA COLIN 1976-03-01 12:00:00 TS -22.1970 155.705 main 379 347 O_____P_OOO_O_ jtwc_sh SH171976 -21.7000 155.400 -1 -22.6789 156.036 40 90 954 -22.4000 155.400 70 965 -21.7000 155.400 TC -21.7000 155.400 4 -22.5000 156.300 TC 95 954 9 195
1976055S06156 1976 19 SP EA COLIN 1976-03-01 14:00:00 TS -22.4798 155.621 90 954 bom main 347 339 P_____O_PPP_P_ SH171976 -21.9921 155.341 -1 -23.0000 155.900 40 90 954 5.50000 -22.6540 155.390 72 961 -21.9921 155.341 TC -21.9917 155.329 4 -22.7825 156.158 TC 95 954 124 124 9 196
1976055S06156 1976 19 SP EA COLIN 1976-03-01 15:00:00 TS -22.6115 155.577 main 339 308 P_____P_PPP_P_ SH171976 -22.1425 155.308 -1 -23.1104 155.828 40 90 954 -22.7737 155.383 73 960 -22.1425 155.308 TC -22.1388 155.291 4 -22.9151 156.085 TC 95 954 8 197
1976055S06156 1976 19 SP EA COLIN 1976-03-01 17:00:00 TS -22.8693 155.492 90 954 bom main 308 300 P_____O_PPP_P_ SH171976 -22.4474 155.236 -1 -23.3000 155.700 40 90 954 5.50000 -23.0032 155.369 76 956 -22.4474 155.236 TC -22.4355 155.210 4 -23.1719 155.952 TC 95 954 124 124 8 196
1976055S06156 1976 19 SP EA COLIN 1976-03-01 18:00:00 TS -23.0036 155.455 main 300 271 O_____P_POP_O_ jtwc_sh SH171976 -22.6000 155.200 -1 -23.4254 155.653 40 90 954 -23.1149 155.363 77 955 -22.6000 155.200 TC -22.5851 155.171 4 -23.3000 155.900 TC 95 954 8 192
1976055S06156 1976 19 SP EA COLIN 1976-03-01 20:00:00 TS -23.2813 155.398 90 954 bom main 271 264 P_____O_PPP_P_ SH171976 -22.9000 155.128 -1 -23.7000 155.600 40 90 954 5.50000 -23.3367 155.359 80 951 -22.9000 155.128 TC -22.8868 155.098 4 -23.5612 155.832 TC 95 954 124 124 9 189
1976055S06156 1976 19 SP EA COLIN 1976-03-01 21:00:00 TS -23.4209 155.376 main 264 245 P_____P_PPP_P_ SH171976 -23.0500 155.093 -1 -23.8316 155.590 40 90 954 -23.4486 155.362 81 950 -23.0500 155.093 TC -23.0388 155.066 4 -23.6925 155.812 TC 95 954 9 184
1976055S06156 1976 19 SP EA COLIN 1976-03-01 23:00:00 TS -23.7044 155.350 90 955 bom main 245 231 P_____O_PPP_P_ SH171976 -23.3500 155.028 -1 -24.1000 155.600 40 90 955 5.50000 -23.6794 155.381 83 946 -23.3500 155.028 TC -23.3454 155.016 4 -23.9609 155.797 TC 95 954 124 124 9 185
1976055S06156 1976 19 SP EA COLIN 1976-03-02 00:00:00 TS -23.8489 155.344 main 231 207 O_____P_OOO_O_ jtwc_sh SH171976 -23.5000 155.000 -1 -24.2422 155.607 40 90 955 -23.8000 155.400 85 945 -23.5000 155.000 TC -23.5000 155.000 4 -24.1000 155.800 TC 95 955 9 182
1976055S06156 1976 19 SP EA COLIN 1976-03-02 03:00:00 TS -24.2910 155.342 main 207 203 P_____P_PPP_P_ SH171976 -23.9425 154.913 -1 -24.6926 155.652 40 90 955 -24.2117 155.510 81 950 -23.9425 154.913 TC -23.9552 154.951 4 -24.5425 155.827 TC 95 955 9 0
1976055S06156 1976 19 SP EA COLIN 1976-03-02 05:00:00 TS -24.5924 155.369 90 955 bom main 206 204 P_____O_PPP_P_ SH171976 -24.2443 154.891 -1 -25.0000 155.700 40 90 955 5.50000 -24.4978 155.608 78 953 -24.2443 154.891 TC -24.2632 154.945 4 -24.8474 155.872 TC 95 955 124 124 9 176
1976055S06156 1976 19 SP EA COLIN 1976-03-02 06:00:00 TS -24.7446 155.392 main 204 201 O_____P_POP_O_ jtwc_sh SH171976 -24.4000 154.900 -1 -25.1500 155.728 40 89 955 -24.6427 155.662 77 955 -24.4000 154.900 TC -24.4193 154.952 4 -25.0000 155.900 TC 95 955 9 170
1976055S06156 1976 19 SP EA COLIN 1976-03-02 09:00:00 TS -25.2076 155.490 main 212 212 P_____P_PPP_P_ SH171976 -24.8848 154.983 -1 -25.6000 155.828 40 86 956 -25.0773 155.832 73 960 -24.8848 154.983 TC -24.8987 155.027 4 -25.4500 155.992 TC 92 956 10 167
1976055S06156 1976 19 SP EA COLIN 1976-03-02 11:00:00 TS -25.5210 155.589 85 957 bom main 228 228 P_____O_PPP_P_ SH171976 -25.2249 155.111 -1 -25.9000 155.900 40 85 957 5.00000 -25.3614 155.946 71 963 -25.2249 155.111 TC -25.2301 155.130 4 -25.7500 156.064 TC 90 956 119 119 10 163
1976055S06156 1976 19 SP EA COLIN 1976-03-02 12:00:00 TS -25.6793 155.647 main 234 234 O_____P_OOO_O_ jtwc_sh SH171976 -25.4000 155.200 -1 -26.0552 155.931 40 85 957 -25.5000 156.000 70 965 -25.4000 155.200 TC -25.4000 155.200 4 -25.9000 156.100 TC 90 957 10 159
1976055S06156 1976 19 SP EA COLIN 1976-03-02 15:00:00 TS -26.1577 155.862 main 279 278 P_____P_PPP_P_ SH171976 -25.9426 155.562 -1 -26.5158 156.026 40 85 958 -25.8690 156.133 71 963 -25.9426 155.562 TC -25.9536 155.513 4 -26.3650 156.193 TC 87 958 10 157
1976055S06156 1976 19 SP EA COLIN 1976-03-02 17:00:00 TS -26.4723 156.030 85 960 bom main 285 285 P_____O_PPP_P_ SH171976 -26.3141 155.854 -1 -26.8000 156.100 40 85 960 5.00000 -26.1078 156.217 72 962 -26.3141 155.854 TC -26.3336 155.778 4 -26.6614 156.261 TC 85 959 119 119 10 154
1976055S06156 1976 19 SP EA COLIN 1976-03-02 18:00:00 TS -26.6252 156.117 main 292 290 O_____P_POP_O_ jtwc_sh SH171976 -26.5000 156.000 -1 -26.9255 156.142 40 84 960 -26.2274 156.258 72 962 -26.5000 156.000 TC -26.5237 155.922 4 -26.8000 156.300 TC 85 960 10 152
1976055S06156 1976 19 SP EA COLIN 1976-03-02 21:00:00 TS -27.0705 156.378 main 301 297 P_____P_PPP_P_ SH171976 -27.0725 156.415 -1 -27.2696 156.287 40 81 962 -26.5971 156.380 73 961 -27.0725 156.415 TC -27.0818 156.370 4 -27.1575 156.435 TC 82 962 10 152
1976055S06156 1976 19 SP EA COLIN 1976-03-02 23:00:00 TS -27.3599 156.552 80 964 bom main 307 304 P_____O_PPP_P_ SH171976 -27.4338 156.678 -1 -27.5000 156.400 40 80 964 5.00000 -26.8607 156.460 74 960 -27.4338 156.678 TC -27.4334 156.662 4 -27.3829 156.542 TC 80 963 110 110 10 152
1976055S06156 1976 19 SP EA COLIN 1976-03-03 00:00:00 TS -27.5036 156.637 main 304 304 O_____P_OOO_O_ jtwc_sh SH171976 -27.6000 156.800 -1 -27.6250 156.458 40 79 964 -27.0000 156.500 75 960 -27.6000 156.800 TC -27.6000 156.800 4 -27.5000 156.600 TC 80 964 9 153
1976055S06156 1976 19 SP EA COLIN 1976-03-03 03:00:00 TS -27.9198 156.873 main 325 324 P_____P_PPP_P_ SH171976 -28.0223 157.116 -1 -28.0200 156.654 40 76 966 -27.4234 156.606 75 960 -28.0223 157.116 TC -28.0306 157.151 4 -27.8850 156.785 TC 77 966 9 153
1976055S06156 1976 19 SP EA COLIN 1976-03-03 05:00:00 TS -28.1962 157.029 75 968 bom main 332 332 P_____O_PPP_P_ SH171976 -28.2744 157.306 -1 -28.3000 156.800 40 75 968 4.50000 -27.7272 156.677 75 960 -28.2744 157.306 TC -28.2942 157.367 4 -28.1583 156.925 TC 75 967 104 104 9 153
1976055S06156 1976 19 SP EA COLIN 1976-03-03 06:00:00 TS -28.3355 157.109 main 342 342 O_____P_POP_O_ jtwc_sh SH171976 -28.4000 157.400 -1 -28.4390 156.878 40 74 968 -27.8874 156.715 75 960 -28.4000 157.400 TC -28.4221 157.469 4 -28.3000 157.000 TC 75 968 10 153
1976055S06156 1976 19 SP EA COLIN 1976-03-03 09:00:00 TS -28.7624 157.360 main 369 369 P_____P_PPP_P_ SH171976 -28.7925 157.708 -1 -28.8788 157.128 40 71 970 -28.4077 156.841 75 960 -28.7925 157.708 TC -28.8026 157.753 4 -28.7275 157.243 TC 72 970 10 153
1976055S06156 1976 19 SP EA COLIN 1976-03-03 11:00:00 TS -29.0648 157.529 70 972 bom main 379 379 P_____O_PPP_P_ SH171976 -29.0609 157.906 -1 -29.2000 157.300 40 70 972 4.50000 -28.7936 156.942 75 960 -29.0609 157.906 TC -29.0639 157.922 4 -29.0360 157.414 TC 70 971 99 99 10 155
1976055S06156 1976 19 SP EA COLIN 1976-03-03 12:00:00 TS -29.2241 157.611 main 389 389 O_____P_OOO_O_ jtwc_sh SH171976 -29.2000 158.000 -1 -29.3688 157.380 40 69 972 -29.0000 157.000 75 960 -29.2000 158.000 TC -29.2000 158.000 4 -29.2000 157.500 TC 70 972 11 156
1976055S06156 1976 19 SP EA COLIN 1976-03-03 15:00:00 TS -29.7478 157.875 main 425 425 P_____P_PPP_P_ SH171976 -29.6350 158.280 -1 -29.9131 157.623 40 66 974 -29.7598 157.290 70 965 -29.6350 158.280 TC -29.6370 158.267 4 -29.7274 157.743 TC 67 974 12 157
1976055S06156 1976 19 SP EA COLIN 1976-03-03 17:00:00 TS -30.1199 158.046 65 976 bom main 445 458 P_____O_PPP_P_ SH171976 -29.9417 158.436 -1 -30.3000 157.800 40 65 976 4.50000 -30.3033 157.502 66 968 -29.9417 158.436 TC -29.9411 158.422 4 -30.1057 157.911 TC 65 975 89 89 12 159
1976055S06156 1976 19 SP EA COLIN 1976-03-03 18:00:00 TS -30.3101 158.128 main 461 461 O_____P_POP_O_ jtwc_sh SH171976 -30.1000 158.500 -1 -30.4974 157.897 40 63 976 -30.5757 157.605 65 970 -30.1000 158.500 TC -30.0973 158.491 4 -30.3000 158.000 TC 65 976 12 159
1976055S06156 1976 19 SP EA COLIN 1976-03-03 20:00:00 TS -30.6932 158.301 60 979 bom main 487 487 P_____O_PPP_P_ SH171976 -30.4199 158.612 -1 -30.9000 158.100 30 60 979 4.00000 -31.1042 157.791 61 973 -30.4199 158.612 TC -30.4186 158.602 4 -30.7031 158.277 TC 63 978 84 84 12 159
1976055S06156 1976 19 SP EA COLIN 1976-03-03 21:00:00 TS -30.8849 158.379 main 500 500 P_____P_PPP_P_ SH171976 -30.5849 158.652 -1 -31.0946 158.205 30 58 979 -31.3535 157.869 60 975 -30.5849 158.652 TC -30.5839 158.644 4 -30.9075 158.411 TC 62 979 12 164
1976055S06156 1976 19 SP EA COLIN 1976-03-03 23:00:00 TS -31.2685 158.496 55 982 bom main 513 513 P_____O_PPP_P_ SH171976 -30.9250 158.697 -1 -31.5000 158.400 30 55 982 3.50000 -31.8048 157.976 56 978 -30.9250 158.697 TC -30.9245 158.694 4 -31.3087 158.588 TC 60 981 75 75 12 168
1976055S06156 1976 19 SP EA COLIN 1976-03-04 00:00:00 TS -31.4615 158.526 main 514 514 O_____P_OOO_O_ jtwc_sh SH171976 -31.1000 158.700 -1 -31.7308 158.480 30 53 982 -32.0000 158.000 55 980 -31.1000 158.700 TC -31.1000 158.700 4 -31.5000 158.600 TC 60 982 11 0
1976055S06156 1976 19 SP EA COLIN 1976-03-04 02:00:00 TS -31.8256 158.514 50 985 bom main 517 518 P_____O_PPP_P_ SH171976 -31.4533 158.681 -1 -32.2000 158.600 30 50 985 3.00000 -32.2148 157.973 55 980 -31.4533 158.681 TC -31.4551 158.680 4 -31.8768 158.374 TC 58 69 69 11 184
1976055S06156 1976 19 SP EA COLIN 1976-03-04 03:00:00 TS -31.9883 158.475 main 520 513 P_____P_PPP_P_ SH171976 -31.6349 158.652 -1 -32.4119 158.642 30 50 985 -32.2915 157.933 55 980 -31.6349 158.652 TC -31.6379 158.651 4 -32.0532 158.192 TC 57 10 195
1976055S06156 1976 19 SP EA COLIN 1976-03-04 05:00:00 TS -32.3072 158.356 50 988 bom main 518 508 P_____O_PPP_P_ SH171976 -32.0083 158.561 -1 -32.8000 158.700 71 50 988 -32.4097 157.805 55 980 -32.0083 158.561 TC -32.0130 158.560 4 -32.3675 157.787 TC 55 69 69 10 200
1976055S06156 1976 19 SP EA COLIN 1976-03-04 06:00:00 TS -32.4479 158.281 main 511 503 O_____P_POP_O_ jtwc_sh SH171976 -32.2000 158.500 -1 -32.9829 158.758 71 48 989 -32.4616 157.721 55 980 -32.2000 158.500 TC -32.2047 158.501 4 -32.5000 157.600 TC 55 9 203
1976055S06156 1976 19 SP EA COLIN 1976-03-04 09:00:00 TS -32.8684 158.077 main 511 499 P_____P_PPP_P_ SH171976 -32.7925 158.280 -1 -33.4836 158.921 71 43 992 -32.6509 157.398 55 980 -32.7925 158.280 TC -32.7942 158.275 4 -32.6968 157.305 TC 55 10 203
1976055S06156 1976 19 SP EA COLIN 1976-03-04 11:00:00 TS -33.1849 157.907 40 995 bom main 502 496 P_____O_PPP_P_ SH171976 -33.1974 158.097 -1 -33.8000 158.900 71 40 995 -32.8572 157.139 55 980 -33.1974 158.097 TC -33.1966 158.095 4 -32.8609 157.116 TC 55 55 55 11 205
1976055S06156 1976 19 SP EA COLIN 1976-03-04 12:00:00 TS -33.3599 157.803 main 500 488 O_____P_OOO_O_ jtwc_sh SH171976 -33.4000 158.000 -1 -33.9593 158.816 71 40 994 -33.0000 157.000 55 980 -33.4000 158.000 TC -33.4000 158.000 4 -33.0000 157.000 TC 55 14 208
1976055S06156 1976 19 SP EA COLIN 1976-03-04 15:00:00 TS -33.9880 157.400 main 488 475 P_____P_PPP_P_ SH171976 -33.9924 157.714 -1 -34.4452 158.277 71 40 993 -33.7382 156.501 55 980 -33.9924 157.714 TC -34.0068 157.718 4 -33.7529 156.474 TC 55 15 210
1976055S06156 1976 19 SP EA COLIN 1976-03-04 18:00:00 TS -34.6732 156.883 main 480 476 O_____P_POP_O_ jtwc_sh SH171976 -34.6000 157.400 -1 -34.9363 157.389 71 40 992 -34.6409 155.941 55 980 -34.6000 157.400 TC -34.6278 157.395 4 -34.7000 155.900 TC 55 16 211
1976055S06156 1976 19 SP EA COLIN 1976-03-04 21:00:00 TS -35.3972 156.374 main 489 477 P_____P_PPP_P_ SH171976 -35.2425 157.050 -1 -35.4235 156.259 71 40 991 -35.5978 155.408 55 980 -35.2425 157.050 TC -35.2599 157.049 4 -35.6301 155.369 TC 57 16 207
1976055S06156 1976 19 SP EA COLIN 1976-03-05 00:00:00 TS -36.1286 155.971 40 990 bom main 479 472 O_____O_OOO_O_ jtwc_sh SH171976 -35.9000 156.700 -1 -35.9000 155.000 51 40 990 -36.5000 155.000 55 980 -35.9000 156.700 TC -35.9000 156.700 4 -36.5000 155.000 TC 60 55 55 15 198
1976055S06156 1976 19 SP EA COLIN 1976-03-05 03:00:00 TS -36.8006 155.808 main 482 482 P_______PPP_P_ SH171976 -36.5498 156.399 -1 51 -37.1944 154.944 61 973 -36.5498 156.399 TC -36.5143 156.369 4 -37.1947 154.930 TC 60 13 191
1976055S06156 1976 19 SP EA COLIN 1976-03-05 06:00:00 TS -37.4323 155.652 main 493 477 O_______POP_O_ jtwc_sh SH171976 -37.2000 156.100 -1 51 -37.8215 155.019 67 967 -37.2000 156.100 TC -37.1399 156.039 4 -37.8000 155.000 TC 60 13 192
1976055S06156 1976 19 SP EA COLIN 1976-03-05 09:00:00 TS -38.0571 155.479 main 482 471 P_______PPP_P_ SH171976 -37.8350 155.750 -1 51 -38.4129 155.085 73 961 -37.8350 155.750 TC -37.7956 155.715 4 -38.4069 155.095 TC 62 13 194
1976055S06156 1976 19 SP EA COLIN 1976-03-05 12:00:00 TS -38.7000 155.240 main 472 466 O_______OOO_O_ jtwc_sh SH171976 -38.5000 155.400 -1 51 -39.0000 155.000 80 955 -38.5000 155.400 TC -38.5000 155.400 4 -39.0000 155.000 TC 65 14 201
1976055S06156 1976 19 SP EA COLIN 1976-03-05 15:00:00 TS -39.3908 154.837 main 467 466 P_______PPP_P_ SH171976 -39.2124 155.092 -1 -39.6700 154.466 76 958 -39.2124 155.092 TC -39.2661 155.095 4 -39.5933 154.441 TC 67 16 207
1976055S06156 1976 19 SP EA COLIN 1976-03-05 18:00:00 TS -40.1397 154.298 main 470 443 O_______POP_O_ jtwc_sh SH171976 -40.0000 154.800 -1 -40.3316 153.768 72 962 -40.0000 154.800 TC -40.0829 154.797 4 -40.2000 153.700 TC 70 18 211
1976055S06156 1976 19 SP EA COLIN 1976-03-05 21:00:00 TS -40.9089 153.664 main 443 385 P_______PPP_P_ SH171976 -40.8752 154.504 -1 -40.9515 153.059 68 966 -40.8752 154.504 TC -40.9334 154.500 4 -40.8879 153.012 TC 67 18 215
1976055S06156 1976 19 SP EA COLIN 1976-03-06 00:00:00 TS -41.5818 152.964 main 385 322 O_______OOO_O_ jtwc_sh SH171976 -41.8000 154.200 -1 -41.5000 152.500 65 970 -41.8000 154.200 TC -41.8000 154.200 4 -41.5000 152.500 TC 65 14 226
1976055S06156 1976 19 SP EA COLIN 1976-03-06 03:00:00 TS -41.8851 152.303 main 322 313 ________P___P_ SH171976 -1 -41.8833 152.256 62 972 TC 4 -41.8869 152.350 TC 60 8 218
1976055S06156 1976 19 SP EA COLIN 1976-03-06 06:00:00 TS -42.2046 152.299 main 320 320 ________P___O_ -1 -42.2093 152.198 60 975 4 -42.2000 152.400 TC 55 7 177
1976055S06156 1976 19 SP EA COLIN 1976-03-06 09:00:00 TS -42.5441 152.345 main 321 321 ________P___P_ -1 -42.5558 152.291 57 977 4 -42.5324 152.399 TC 47 8 169
1976055S06156 1976 19 SP EA COLIN 1976-03-06 12:00:00 TS -43.0000 152.500 main 345 345 ________O___O_ -1 -43.0000 152.500 55 980 -43.0000 152.500 TC 40 12 167
1976055S06156 1976 19 SP EA COLIN 1976-03-06 15:00:00 TS -43.7589 152.719 main 383 383 ________P___P_ -1 -43.7628 152.699 51 982 -43.7550 152.740 TC 37 17 166
1976055S06156 1976 19 SP EA COLIN 1976-03-06 18:00:00 TS -44.6052 153.056 main 435 435 ________P___O_ -1 -44.6104 153.013 47 985 -44.6000 153.100 TC 35 17 162
1976055S06156 1976 19 SP EA COLIN 1976-03-06 21:00:00 TS -45.3962 153.468 main 499 499 ________P___P_ -1 -45.4029 153.446 43 987 -45.3895 153.489 TC 32 15 155
1976055S06156 1976 19 SP EA COLIN 1976-03-07 00:00:00 TS -46.0000 154.000 main 566 566 ________O___O_ -1 -46.0000 154.000 40 990 -46.0000 154.000 TC 30 12 138
1976055S06156 1976 19 SP EA COLIN 1976-03-07 03:00:00 TS -46.3167 154.655 main 629 629 ________P___P_ -1 -46.2985 154.663 40 990 -46.3348 154.647 TC 27 10 111
1976055S06156 1976 19 SP EA COLIN 1976-03-07 06:00:00 TS -46.3716 155.402 main 681 681 ________P___O_ -1 -46.3432 155.405 40 990 -46.4000 155.400 TC 25 11 86
1976055S06156 1976 19 SP EA COLIN 1976-03-07 09:00:00 TS -46.2361 156.194 main 726 723 ________P___P_ -1 -46.2161 156.193 40 990 -46.2561 156.195 TC 25 12 71
1976055S06156 1976 19 SP EA COLIN 1976-03-07 12:00:00 TS -46.0000 157.000 main 723 ________O___O_ -1 -46.0000 157.000 40 990 -46.0000 157.000 TC 25 12 67

Digital Typhoon Data and Search

About IBTrACS Database

This database is a web-friendly format of International Best Track Archive for Climate Stewardship (IBTrACS), a global best track data archive curated by NOAA dating back to 1842.

Updated: 2021-12-03